createdAt,value
2016-11-15T00:01:02.132Z,4.54
2016-11-15T00:02:17.788Z,4.43
2016-11-15T00:03:30.900Z,4.43
2016-11-15T00:04:46.555Z,4.46
2016-11-15T00:05:58.778Z,4.47
2016-11-15T00:07:14.668Z,4.42
2016-11-15T00:08:31.376Z,4.42
2016-11-15T00:09:44.990Z,4.43
2016-11-15T00:11:00.133Z,4.44
2016-11-15T00:12:12.548Z,4.47
2016-11-15T00:13:27.323Z,4.39
2016-11-15T00:14:42.155Z,4.32
2016-11-15T00:15:58.033Z,4.28
2016-11-15T00:17:13.935Z,4.33
2016-11-15T00:18:27.293Z,4.33
2016-11-15T00:19:41.703Z,4.25
2016-11-15T00:20:57.022Z,4.29
2016-11-15T00:22:12.929Z,4.24
2016-11-15T00:23:26.379Z,4.16
2016-11-15T00:24:41.441Z,4.22
2016-11-15T00:25:56.660Z,4.18
2016-11-15T00:27:10.078Z,4.18
2016-11-15T00:28:23.523Z,4.22
2016-11-15T00:29:36.652Z,4.12
2016-11-15T00:30:52.551Z,4.19
2016-11-15T00:32:08.980Z,4.16
2016-11-15T00:33:25.144Z,4.07
2016-11-15T00:34:38.512Z,4.18
2016-11-15T00:35:54.207Z,4.19
2016-11-15T00:37:05.906Z,4.18
2016-11-15T00:38:22.231Z,4.24
2016-11-15T00:39:36.678Z,4.14
2016-11-15T00:40:51.727Z,4.18
2016-11-15T00:42:06.161Z,4.08
2016-11-15T00:43:22.274Z,4.12
2016-11-15T00:44:38.238Z,4.06
2016-11-15T00:45:54.304Z,4.14
2016-11-15T00:47:09.846Z,4.16
2016-11-15T00:48:24.868Z,4.04
2016-11-15T00:49:36.324Z,4.16
2016-11-15T00:50:49.965Z,4.16
2016-11-15T00:52:06.444Z,4.16
2016-11-15T00:53:21.447Z,4.19
2016-11-15T00:54:36.696Z,4.16
2016-11-15T00:55:48.355Z,4.16
2016-11-15T00:57:02.547Z,4.16
2016-11-15T00:58:16.081Z,4.21
2016-11-15T00:59:31.295Z,4.14
2016-11-15T01:00:44.708Z,4.14
2016-11-15T01:02:01.284Z,4.19
2016-11-15T01:03:14.650Z,4.18
2016-11-15T01:04:27.096Z,4.16
2016-11-15T01:05:41.776Z,4.16
2016-11-15T01:06:57.819Z,4.22
2016-11-15T01:08:12.770Z,4.15
2016-11-15T01:09:27.189Z,4.14
2016-11-15T01:10:43.093Z,4.14
2016-11-15T01:11:59.450Z,4.12
2016-11-15T01:13:12.896Z,4.15
2016-11-15T01:14:29.030Z,4.15
2016-11-15T01:15:43.867Z,4.18
2016-11-15T01:17:00.304Z,4.22
2016-11-15T01:18:15.993Z,4.19
2016-11-15T01:19:31.231Z,4.18
2016-11-15T01:20:47.923Z,4.19
2016-11-15T01:22:04.295Z,4.14
2016-11-15T01:23:17.883Z,4.18
2016-11-15T01:24:32.109Z,4.08
2016-11-15T01:25:45.078Z,4.08
2016-11-15T01:27:01.110Z,4.07
2016-11-15T01:28:17.833Z,4.06
2016-11-15T01:29:31.334Z,4.16
2016-11-15T01:30:47.245Z,4.07
2016-11-15T01:32:00.903Z,4.14
2016-11-15T01:33:13.649Z,4.07
2016-11-15T01:34:27.496Z,4.26
2016-11-15T01:35:42.168Z,4.1
2016-11-15T01:36:58.570Z,4.1
2016-11-15T01:38:13.494Z,4.19
2016-11-15T01:39:28.646Z,4.04
2016-11-15T01:40:43.527Z,4.21
2016-11-15T01:41:58.363Z,4.21
2016-11-15T01:43:11.434Z,4.18
2016-11-15T01:44:25.081Z,4.21
2016-11-15T01:45:40.018Z,4.1
2016-11-15T01:46:54.518Z,4.14
2016-11-15T01:48:08.108Z,4.15
2016-11-15T01:49:21.387Z,4.08
2016-11-15T01:50:33.625Z,4.14
2016-11-15T01:51:46.711Z,4.04
2016-11-15T01:53:01.526Z,4.1
2016-11-15T01:54:15.537Z,4.12
2016-11-15T01:55:29.122Z,4.12
2016-11-15T01:56:43.664Z,4.07
2016-11-15T01:57:57.230Z,4.06
2016-11-15T01:59:11.977Z,4.04
2016-11-15T02:00:28.271Z,4.07
2016-11-15T02:01:40.068Z,4.07
2016-11-15T02:02:54.403Z,4.14
2016-11-15T02:04:09.074Z,4.08
2016-11-15T02:05:21.872Z,4.07
2016-11-15T02:06:36.361Z,4.1
2016-11-15T02:07:51.361Z,4.04
2016-11-15T02:09:03.199Z,4.14
2016-11-15T02:10:19.846Z,4.03
2016-11-15T02:11:34.867Z,4.14
2016-11-15T02:12:49.364Z,4.14
2016-11-15T02:14:05.219Z,4.07
2016-11-15T02:15:18.639Z,4.06
2016-11-15T02:16:34.048Z,4.1
2016-11-15T02:17:47.448Z,4.06
2016-11-15T02:19:02.185Z,4.12
2016-11-15T02:20:18.916Z,4.04
2016-11-15T02:21:32.571Z,4.06
2016-11-15T02:22:44.245Z,4.1
2016-11-15T02:23:59.878Z,4.07
2016-11-15T02:25:14.940Z,4.14
2016-11-15T02:26:27.330Z,4.22
2016-11-15T02:27:38.879Z,4.24
2016-11-15T02:28:55.424Z,4.12
2016-11-15T02:30:11.906Z,4.06
2016-11-15T02:31:27.946Z,4.15
2016-11-15T02:32:42.875Z,4.18
2016-11-15T02:33:59.292Z,4.15
2016-11-15T02:35:14.929Z,4.19
2016-11-15T02:36:31.464Z,4.16
2016-11-15T02:37:46.496Z,4.15
2016-11-15T02:39:02.529Z,4.16
2016-11-15T02:40:15.507Z,4.15
2016-11-15T02:41:31.170Z,4.24
2016-11-15T02:42:45.978Z,4.19
2016-11-15T02:44:01.711Z,4.16
2016-11-15T02:45:17.564Z,4.15
2016-11-15T02:46:33.761Z,4.21
2016-11-15T02:47:49.808Z,4.16
2016-11-15T02:49:04.472Z,4.18
2016-11-15T02:50:20.658Z,4.22
2016-11-15T02:51:33.455Z,4.16
2016-11-15T02:52:47.793Z,4.21
2016-11-15T02:54:04.535Z,4.24
2016-11-15T02:55:20.833Z,4.24
2016-11-15T02:56:35.959Z,4.25
2016-11-15T02:57:50.477Z,4.26
2016-11-15T02:59:05.325Z,4.29
2016-11-15T03:00:15.473Z,4.25
2016-11-15T03:01:29.318Z,4.32
2016-11-15T03:02:44.255Z,4.29
2016-11-15T03:03:59.016Z,4.32
2016-11-15T03:05:13.920Z,4.25
2016-11-15T03:06:26.981Z,4.29
2016-11-15T03:07:42.618Z,4.33
2016-11-15T03:08:57.156Z,4.34
2016-11-15T03:10:13.018Z,4.37
2016-11-15T03:11:27.274Z,4.29
2016-11-15T03:12:42.128Z,4.44
2016-11-15T03:13:57.064Z,4.26
2016-11-15T03:15:11.348Z,4.32
2016-11-15T03:16:25.689Z,4.4
2016-11-15T03:17:41.337Z,4.52
2016-11-15T03:18:56.577Z,4.47
2016-11-15T03:20:12.907Z,4.54
2016-11-15T03:21:27.240Z,4.54
2016-11-15T03:22:41.993Z,4.55
2016-11-15T03:23:58.370Z,4.57
2016-11-15T03:25:13.256Z,4.55
2016-11-15T03:26:29.284Z,4.51
2016-11-15T03:27:43.909Z,4.52
2016-11-15T03:29:00.312Z,4.59
2016-11-15T03:30:14.983Z,4.61
2016-11-15T03:31:31.837Z,4.57
2016-11-15T03:32:48.120Z,4.57
2016-11-15T03:34:01.902Z,4.67
2016-11-15T03:35:16.510Z,4.65
2016-11-15T03:36:32.850Z,4.59
2016-11-15T03:37:47.579Z,4.67
2016-11-15T03:39:03.597Z,4.67
2016-11-15T03:40:16.453Z,4.73
2016-11-15T03:41:31.715Z,4.62
2016-11-15T03:42:46.221Z,4.64
2016-11-15T03:44:01.510Z,4.77
2016-11-15T03:45:17.207Z,4.61
2016-11-15T03:46:30.421Z,4.79
2016-11-15T03:47:46.880Z,4.72
2016-11-15T03:49:01.589Z,4.72
2016-11-15T03:50:16.246Z,4.73
2016-11-15T03:51:31.888Z,4.77
2016-11-15T03:52:48.160Z,4.76
2016-11-15T03:54:04.254Z,4.77
2016-11-15T03:55:15.733Z,4.8
2016-11-15T03:56:27.303Z,4.86
2016-11-15T03:57:42.222Z,4.76
2016-11-15T03:58:54.217Z,4.84
2016-11-15T04:00:07.532Z,4.8
2016-11-15T04:01:22.364Z,4.84
2016-11-15T04:02:38.148Z,4.88
2016-11-15T04:03:54.478Z,4.89
2016-11-15T04:05:09.495Z,4.88
2016-11-15T04:06:23.521Z,4.88
2016-11-15T04:07:38.029Z,4.84
2016-11-15T04:08:53.948Z,4.89
2016-11-15T04:10:06.197Z,4.92
2016-11-15T04:11:22.110Z,4.95
2016-11-15T04:12:38.155Z,4.89
2016-11-15T04:13:52.649Z,4.95
2016-11-15T04:15:07.703Z,4.95
2016-11-15T04:16:21.967Z,4.95
2016-11-15T04:17:37.503Z,4.94
2016-11-15T04:18:52.568Z,4.95
2016-11-15T04:20:08.093Z,4.94
2016-11-15T04:21:24.364Z,5.07
2016-11-15T04:22:39.119Z,5.02
2016-11-15T04:23:54.089Z,5.05
2016-11-15T04:25:10.396Z,4.98
2016-11-15T04:26:26.308Z,5.1
2016-11-15T04:27:42.642Z,5.1
2016-11-15T04:28:55.624Z,5.1
2016-11-15T04:30:12.412Z,5.14
2016-11-15T04:31:27.095Z,5.14
2016-11-15T04:32:39.811Z,5.16
2016-11-15T04:33:54.876Z,5.12
2016-11-15T04:35:09.051Z,5.12
2016-11-15T04:36:23.549Z,5.14
2016-11-15T04:37:39.849Z,5.12
2016-11-15T04:38:54.784Z,5.22
2016-11-15T04:40:11.414Z,5.2
2016-11-15T04:41:26.095Z,5.22
2016-11-15T04:42:41.991Z,5.25
2016-11-15T04:43:57.819Z,5.27
2016-11-15T04:45:12.708Z,5.32
2016-11-15T04:46:26.828Z,5.27
2016-11-15T04:47:41.393Z,5.37
2016-11-15T04:48:57.756Z,5.34
2016-11-15T04:50:09.259Z,5.43
2016-11-15T04:51:25.260Z,5.38
2016-11-15T04:52:39.281Z,5.46
2016-11-15T04:53:52.588Z,5.43
2016-11-15T04:55:05.364Z,5.43
2016-11-15T04:56:21.134Z,5.57
2016-11-15T04:57:37.169Z,5.45
2016-11-15T04:58:53.568Z,5.49
2016-11-15T05:00:08.104Z,5.56
2016-11-15T05:01:22.518Z,5.49
2016-11-15T05:02:35.988Z,5.6
2016-11-15T05:03:50.667Z,5.63
2016-11-15T05:05:05.174Z,5.63
2016-11-15T05:06:17.017Z,5.67
2016-11-15T05:07:31.844Z,5.7
2016-11-15T05:08:46.868Z,5.71
2016-11-15T05:10:03.408Z,5.74
2016-11-15T05:11:18.242Z,5.77
2016-11-15T05:12:33.810Z,5.77
2016-11-15T05:13:49.708Z,5.83
2016-11-15T05:15:04.522Z,5.81
2016-11-15T05:16:20.818Z,5.81
2016-11-15T05:17:35.115Z,5.83
2016-11-15T05:18:52.044Z,5.82
2016-11-15T05:20:03.872Z,5.86
2016-11-15T05:21:19.139Z,5.85
2016-11-15T05:22:33.142Z,5.86
2016-11-15T05:23:48.671Z,5.91
2016-11-15T05:25:04.971Z,5.92
2016-11-15T05:26:21.304Z,5.85
2016-11-15T05:27:34.356Z,5.95
2016-11-15T05:28:50.741Z,5.96
2016-11-15T05:30:06.494Z,5.92
2016-11-15T05:31:18.865Z,5.95
2016-11-15T05:32:33.850Z,5.98
2016-11-15T05:33:49.946Z,6
2016-11-15T05:35:04.936Z,6.01
2016-11-15T05:36:19.824Z,6
2016-11-15T05:37:34.584Z,5.96
2016-11-15T05:38:48.559Z,6.01
2016-11-15T05:40:02.147Z,6.07
2016-11-15T05:41:15.612Z,6.01
2016-11-15T05:42:31.974Z,6.09
2016-11-15T05:43:45.729Z,6.06
2016-11-15T05:45:02.014Z,6.1
2016-11-15T05:46:16.996Z,6.06
2016-11-15T05:47:33.285Z,6.07
2016-11-15T05:48:49.458Z,6.13
2016-11-15T05:50:04.543Z,6.07
2016-11-15T05:51:20.665Z,6.06
2016-11-15T05:52:35.394Z,6.13
2016-11-15T05:53:52.043Z,6.21
2016-11-15T05:55:07.022Z,6.18
2016-11-15T05:56:23.051Z,6.11
2016-11-15T05:57:36.200Z,6.21
2016-11-15T05:58:48.204Z,6.22
2016-11-15T06:00:03.546Z,6.13
2016-11-15T06:01:19.427Z,6.18
2016-11-15T06:02:32.985Z,6.21
2016-11-15T06:03:47.812Z,6.26
2016-11-15T06:05:02.762Z,6.26
2016-11-15T06:06:18.835Z,6.3
2016-11-15T06:07:34.460Z,6.32
2016-11-15T06:08:50.513Z,6.29
2016-11-15T06:10:05.339Z,6.28
2016-11-15T06:11:20.410Z,6.26
2016-11-15T06:12:34.411Z,6.25
2016-11-15T06:13:50.698Z,6.28
2016-11-15T06:15:04.025Z,6.3
2016-11-15T06:16:20.324Z,6.29
2016-11-15T06:17:35.363Z,6.3
2016-11-15T06:18:51.671Z,6.35
2016-11-15T06:20:06.503Z,6.33
2016-11-15T06:21:23.585Z,6.3
2016-11-15T06:22:37.812Z,6.3
2016-11-15T06:23:54.487Z,6.28
2016-11-15T06:25:09.407Z,6.4
2016-11-15T06:26:22.618Z,6.41
2016-11-15T06:27:38.972Z,6.36
2016-11-15T06:28:52.060Z,6.38
2016-11-15T06:30:07.516Z,6.41
2016-11-15T06:31:23.459Z,6.38
2016-11-15T06:32:37.876Z,6.36
2016-11-15T06:33:53.026Z,6.36
2016-11-15T06:35:08.304Z,6.43
2016-11-15T06:36:22.894Z,6.36
2016-11-15T06:37:38.283Z,6.36
2016-11-15T06:38:54.269Z,6.44
2016-11-15T06:40:09.108Z,6.43
2016-11-15T06:41:25.803Z,6.43
2016-11-15T06:42:40.562Z,6.47
2016-11-15T06:43:54.143Z,6.44
2016-11-15T06:45:07.197Z,6.48
2016-11-15T06:46:22.346Z,6.48
2016-11-15T06:47:35.807Z,6.47
2016-11-15T06:48:49.495Z,6.47
2016-11-15T06:50:03.979Z,6.41
2016-11-15T06:51:19.455Z,6.59
2016-11-15T06:52:32.745Z,6.46
2016-11-15T06:53:46.176Z,6.51
2016-11-15T06:55:02.893Z,6.47
2016-11-15T06:56:14.866Z,6.46
2016-11-15T06:57:31.137Z,6.58
2016-11-15T06:58:45.986Z,6.56
2016-11-15T07:00:00.428Z,6.54
2016-11-15T07:01:14.048Z,6.51
2016-11-15T07:02:27.275Z,6.61
2016-11-15T07:03:41.295Z,6.54
2016-11-15T07:04:56.211Z,6.61
2016-11-15T07:06:11.211Z,6.58
2016-11-15T07:07:24.381Z,6.63
2016-11-15T07:08:36.575Z,6.71
2016-11-15T07:09:51.243Z,6.62
2016-11-15T07:11:07.001Z,6.65
2016-11-15T07:12:23.052Z,6.54
2016-11-15T07:13:38.071Z,6.72
2016-11-15T07:14:53.701Z,6.72
2016-11-15T07:16:08.670Z,6.58
2016-11-15T07:17:23.917Z,6.71
2016-11-15T07:18:39.135Z,6.63
2016-11-15T07:19:55.418Z,6.63
2016-11-15T07:21:10.298Z,6.66
2016-11-15T07:22:25.176Z,6.58
2016-11-15T07:23:41.583Z,6.54
2016-11-15T07:24:54.987Z,6.65
2016-11-15T07:26:10.612Z,6.59
2016-11-15T07:27:26.640Z,6.65
2016-11-15T07:28:41.059Z,6.72
2016-11-15T07:29:55.954Z,6.62
2016-11-15T07:31:11.816Z,6.65
2016-11-15T07:32:26.724Z,6.66
2016-11-15T07:33:41.386Z,6.66
2016-11-15T07:34:57.434Z,6.72
2016-11-15T07:36:11.703Z,6.76
2016-11-15T07:37:25.643Z,6.73
2016-11-15T07:38:40.569Z,6.72
2016-11-15T07:39:55.509Z,6.69
2016-11-15T07:41:10.795Z,6.71
2016-11-15T07:42:24.357Z,6.76
2016-11-15T07:43:37.587Z,6.73
2016-11-15T07:44:52.112Z,6.66
2016-11-15T07:46:05.203Z,6.73
2016-11-15T07:47:17.035Z,6.72
2016-11-15T07:48:30.571Z,6.71
2016-11-15T07:49:45.203Z,6.73
2016-11-15T07:51:01.489Z,6.77
2016-11-15T07:52:17.966Z,6.71
2016-11-15T07:53:34.768Z,6.76
2016-11-15T07:54:49.973Z,6.76
2016-11-15T07:56:03.872Z,6.69
2016-11-15T07:57:20.195Z,6.71
2016-11-15T07:58:30.694Z,6.84
2016-11-15T07:59:46.829Z,6.66
2016-11-15T08:00:58.613Z,6.79
2016-11-15T08:02:13.169Z,6.83
2016-11-15T08:03:28.017Z,6.83
2016-11-15T08:04:43.407Z,6.86
2016-11-15T08:05:59.690Z,6.89
2016-11-15T08:07:11.525Z,6.84
2016-11-15T08:08:27.496Z,6.86
2016-11-15T08:09:42.919Z,6.87
2016-11-15T08:10:56.458Z,6.86
2016-11-15T08:12:13.302Z,6.83
2016-11-15T08:13:29.519Z,6.84
2016-11-15T08:14:42.279Z,6.83
2016-11-15T08:15:58.300Z,6.9
2016-11-15T08:17:13.797Z,6.86
2016-11-15T08:18:25.705Z,6.83
2016-11-15T08:19:38.743Z,6.91
2016-11-15T08:20:55.103Z,6.94
2016-11-15T08:22:09.851Z,6.97
2016-11-15T08:23:25.612Z,6.97
2016-11-15T08:24:41.915Z,6.95
2016-11-15T08:25:54.733Z,6.95
2016-11-15T08:27:11.316Z,7.02
2016-11-15T08:28:28.093Z,6.98
2016-11-15T08:29:44.397Z,7.08
2016-11-15T08:30:59.224Z,7.08
2016-11-15T08:32:13.884Z,6.97
2016-11-15T08:33:28.727Z,6.95
2016-11-15T08:34:43.466Z,7.04
2016-11-15T08:35:59.820Z,6.97
2016-11-15T08:37:16.109Z,7.05
2016-11-15T08:38:30.762Z,7.04
2016-11-15T08:39:46.776Z,7.08
2016-11-15T08:41:03.426Z,7.07
2016-11-15T08:42:18.270Z,7.12
2016-11-15T08:43:32.859Z,7.12
2016-11-15T08:44:48.088Z,7.09
2016-11-15T08:46:02.935Z,7.19
2016-11-15T08:47:18.680Z,7.12
2016-11-15T08:48:33.829Z,7.13
2016-11-15T08:49:47.254Z,7.12
2016-11-15T08:51:02.215Z,7.12
2016-11-15T08:52:15.901Z,7.13
2016-11-15T08:53:31.419Z,7.16
2016-11-15T08:54:46.330Z,7.13
2016-11-15T08:56:08.357Z,7.2
2016-11-15T08:57:22.790Z,7.2
2016-11-15T08:58:37.536Z,7.24
2016-11-15T08:59:50.877Z,7.2
2016-11-15T09:01:04.431Z,7.2
2016-11-15T09:02:19.911Z,7.19
2016-11-15T09:03:36.447Z,7.2
2016-11-15T09:04:49.687Z,7.23
2016-11-15T09:06:06.526Z,7.22
2016-11-15T09:07:19.771Z,7.26
2016-11-15T09:08:35.034Z,7.34
2016-11-15T09:09:49.935Z,7.31
2016-11-15T09:11:04.528Z,7.31
2016-11-15T09:12:18.017Z,7.35
2016-11-15T09:13:34.072Z,7.32
2016-11-15T09:14:46.114Z,7.38
2016-11-15T09:16:03.444Z,7.35
2016-11-15T09:17:20.149Z,7.35
2016-11-15T09:18:32.176Z,7.37
2016-11-15T09:19:48.437Z,7.38
2016-11-15T09:21:04.644Z,7.45
2016-11-15T09:22:18.605Z,7.47
2016-11-15T09:23:35.213Z,7.47
2016-11-15T09:24:51.141Z,7.49
2016-11-15T09:26:06.175Z,7.47
2016-11-15T09:27:22.638Z,7.52
2016-11-15T09:28:37.358Z,7.52
2016-11-15T09:29:54.059Z,7.56
2016-11-15T09:31:10.231Z,7.52
2016-11-15T09:32:26.789Z,7.6
2016-11-15T09:33:39.806Z,7.55
2016-11-15T09:34:56.107Z,7.56
2016-11-15T09:36:10.409Z,7.52
2016-11-15T09:37:24.835Z,7.47
2016-11-15T09:38:39.613Z,7.58
2016-11-15T09:39:54.419Z,7.49
2016-11-15T09:41:08.333Z,7.47
2016-11-15T09:42:23.105Z,7.52
2016-11-15T09:43:39.443Z,7.59
2016-11-15T09:44:54.285Z,7.5
2016-11-15T09:46:07.720Z,7.58
2016-11-15T09:47:21.856Z,7.66
2016-11-15T09:48:36.297Z,7.53
2016-11-15T09:49:51.950Z,7.63
2016-11-15T09:51:08.242Z,7.63
2016-11-15T09:52:25.071Z,7.72
2016-11-15T09:53:39.504Z,7.67
2016-11-15T09:54:53.935Z,7.66
2016-11-15T09:56:10.007Z,7.63
2016-11-15T09:57:24.788Z,7.67
2016-11-15T09:58:39.432Z,7.63
2016-11-15T09:59:54.415Z,7.71
2016-11-15T10:01:08.360Z,7.69
2016-11-15T10:02:21.833Z,7.71
2016-11-15T10:03:35.696Z,7.75
2016-11-15T10:04:51.024Z,7.72
2016-11-15T10:06:07.326Z,7.74
2016-11-15T10:07:22.149Z,7.72
2016-11-15T10:08:37.069Z,7.75
2016-11-15T10:09:51.751Z,7.69
2016-11-15T10:11:05.802Z,7.81
2016-11-15T10:12:21.835Z,7.92
2016-11-15T10:13:38.007Z,7.75
2016-11-15T10:14:52.736Z,7.82
2016-11-15T10:16:07.171Z,7.79
2016-11-15T10:17:21.961Z,7.84
2016-11-15T10:18:36.154Z,7.77
2016-11-15T10:19:51.049Z,7.75
2016-11-15T10:21:07.079Z,7.72
2016-11-15T10:22:20.925Z,7.72
2016-11-15T10:23:37.053Z,7.72
2016-11-15T10:24:51.880Z,7.67
2016-11-15T10:26:07.835Z,7.78
2016-11-15T10:27:21.386Z,7.79
2016-11-15T10:28:36.471Z,7.75
2016-11-15T10:29:52.354Z,7.79
2016-11-15T10:31:04.340Z,7.85
2016-11-15T10:32:21.025Z,7.92
2016-11-15T10:33:36.860Z,7.87
2016-11-15T10:35:03.837Z,8.03
2016-11-15T10:36:16.019Z,8.02
2016-11-15T10:37:32.369Z,7.96
2016-11-15T10:38:47.600Z,7.96
2016-11-15T10:40:04.295Z,7.99
2016-11-15T10:41:19.150Z,7.96
2016-11-15T10:42:36.173Z,7.99
2016-11-15T10:43:48.381Z,7.89
2016-11-15T10:45:01.496Z,8
2016-11-15T10:46:16.240Z,7.94
2016-11-15T10:47:30.126Z,7.99
2016-11-15T10:48:45.356Z,7.97
2016-11-15T10:49:59.831Z,8.02
2016-11-15T10:51:14.859Z,8.04
2016-11-15T10:52:28.422Z,8.03
2016-11-15T10:53:43.064Z,8.04
2016-11-15T10:54:59.775Z,8.11
2016-11-15T10:56:13.259Z,8.14
2016-11-15T10:57:29.550Z,8.08
2016-11-15T10:58:44.619Z,8.03
2016-11-15T10:59:58.497Z,8.03
2016-11-15T11:01:14.636Z,8.15
2016-11-15T11:02:30.800Z,8.08
2016-11-15T11:03:46.113Z,8.04
2016-11-15T11:05:02.623Z,8.1
2016-11-15T11:06:18.493Z,8.2
2016-11-15T11:07:33.984Z,8.14
2016-11-15T11:08:47.226Z,8.25
2016-11-15T11:10:00.690Z,8.25
2016-11-15T11:11:17.078Z,8.25
2016-11-15T11:12:31.896Z,8.22
2016-11-15T11:13:47.196Z,8.26
2016-11-15T11:15:00.790Z,8.3
2016-11-15T11:16:17.354Z,8.39
2016-11-15T11:17:32.126Z,8.36
2016-11-15T11:18:47.024Z,8.39
2016-11-15T11:20:03.096Z,8.4
2016-11-15T11:21:19.204Z,8.44
2016-11-15T11:22:34.866Z,8.42
2016-11-15T11:23:49.865Z,8.39
2016-11-15T11:25:03.369Z,8.44
2016-11-15T11:26:19.151Z,8.45
2016-11-15T11:27:32.422Z,8.47
2016-11-15T11:28:49.189Z,8.54
2016-11-15T11:30:03.985Z,8.48
2016-11-15T11:31:19.457Z,8.5
2016-11-15T11:32:32.853Z,8.47
2016-11-15T11:33:46.059Z,8.47
2016-11-15T11:35:02.753Z,8.51
2016-11-15T11:36:17.793Z,8.48
2016-11-15T11:37:34.442Z,8.45
2016-11-15T11:38:47.743Z,8.47
2016-11-15T11:40:04.343Z,8.44
2016-11-15T11:41:18.991Z,8.42
2016-11-15T11:42:33.174Z,8.47
2016-11-15T11:43:48.948Z,8.53
2016-11-15T11:45:05.416Z,8.47
2016-11-15T11:46:20.749Z,8.44
2016-11-15T11:47:37.328Z,8.53
2016-11-15T11:48:53.368Z,8.44
2016-11-15T11:50:07.784Z,8.54
2016-11-15T11:51:23.941Z,8.55
2016-11-15T11:52:38.522Z,8.57
2016-11-15T11:53:52.098Z,8.55
2016-11-15T11:55:05.738Z,8.45
2016-11-15T11:56:21.968Z,8.51
2016-11-15T11:57:37.364Z,8.51
2016-11-15T11:58:53.079Z,8.57
2016-11-15T12:00:08.117Z,8.5
2016-11-15T12:01:24.954Z,8.51
2016-11-15T12:02:39.551Z,8.48
2016-11-15T12:03:54.230Z,8.57
2016-11-15T12:05:10.543Z,8.48
2016-11-15T12:06:25.393Z,8.51
2016-11-15T12:07:41.552Z,8.42
2016-11-15T12:08:58.424Z,8.45
2016-11-15T12:10:15.109Z,8.51
2016-11-15T12:11:28.948Z,8.54
2016-11-15T12:12:45.316Z,8.57
2016-11-15T12:14:00.180Z,8.54
2016-11-15T12:15:13.084Z,8.57
2016-11-15T12:16:27.131Z,8.63
2016-11-15T12:17:41.256Z,8.6
2016-11-15T12:18:55.661Z,8.54
2016-11-15T12:20:09.229Z,8.54
2016-11-15T12:21:25.359Z,8.68
2016-11-15T12:22:40.630Z,8.68
2016-11-15T12:23:55.295Z,8.66
2016-11-15T12:25:10.443Z,8.63
2016-11-15T12:26:27.170Z,8.68
2016-11-15T12:27:39.341Z,8.68
2016-11-15T12:28:56.069Z,8.71
2016-11-15T12:30:09.290Z,8.72
2016-11-15T12:31:25.831Z,8.81
2016-11-15T12:32:37.778Z,8.81
2016-11-15T12:33:52.935Z,8.78
2016-11-15T12:35:09.208Z,8.73
2016-11-15T12:36:24.247Z,8.73
2016-11-15T12:37:38.906Z,8.79
2016-11-15T12:38:53.655Z,8.69
2016-11-15T12:40:08.564Z,8.81
2016-11-15T12:41:23.583Z,8.79
2016-11-15T12:42:40.416Z,8.75
2016-11-15T12:43:52.661Z,8.78
2016-11-15T12:45:06.286Z,8.75
2016-11-15T12:46:21.459Z,8.63
2016-11-15T12:47:35.317Z,8.76
2016-11-15T12:48:51.193Z,8.72
2016-11-15T12:50:03.001Z,8.78
2016-11-15T12:51:18.784Z,8.78
2016-11-15T12:52:35.139Z,8.86
2016-11-15T12:53:48.580Z,8.81
2016-11-15T12:55:04.931Z,8.75
2016-11-15T12:56:21.461Z,8.75
2016-11-15T12:57:36.954Z,8.76
2016-11-15T12:58:52.187Z,8.73
2016-11-15T13:00:06.843Z,8.79
2016-11-15T13:01:23.121Z,8.79
2016-11-15T13:02:37.902Z,8.81
2016-11-15T13:03:51.763Z,8.91
2016-11-15T13:05:06.428Z,8.88
2016-11-15T13:06:21.342Z,8.96
2016-11-15T13:07:36.588Z,8.94
2016-11-15T13:08:52.989Z,8.93
2016-11-15T13:10:06.853Z,8.94
2016-11-15T13:11:20.278Z,9.05
2016-11-15T13:12:33.846Z,9.02
2016-11-15T13:13:50.142Z,9.02
2016-11-15T13:15:06.994Z,9.1
2016-11-15T13:16:21.858Z,9.05
2016-11-15T13:17:35.905Z,9.06
2016-11-15T13:18:52.658Z,9.01
2016-11-15T13:20:07.547Z,9.09
2016-11-15T13:21:21.965Z,9.09
2016-11-15T13:22:37.039Z,9.15
2016-11-15T13:23:53.199Z,9.13
2016-11-15T13:25:06.257Z,9.12
2016-11-15T13:26:22.794Z,9.05
2016-11-15T13:27:35.556Z,9.05
2016-11-15T13:28:48.758Z,9.09
2016-11-15T13:30:05.669Z,9.09
2016-11-15T13:31:22.912Z,9.04
2016-11-15T13:32:37.727Z,9.09
2016-11-15T13:33:49.606Z,9.06
2016-11-15T13:35:05.795Z,9.13
2016-11-15T13:36:19.652Z,9.06
2016-11-15T13:37:35.901Z,9.04
2016-11-15T13:38:52.667Z,9.09
2016-11-15T13:40:09.059Z,9.16
2016-11-15T13:41:21.148Z,9.06
2016-11-15T13:42:34.541Z,9.04
2016-11-15T13:43:46.758Z,9.04
2016-11-15T13:45:01.415Z,9.04
2016-11-15T13:46:17.850Z,9.02
2016-11-15T13:47:28.182Z,9.05
2016-11-15T13:48:44.748Z,9.09
2016-11-15T13:50:00.200Z,9.09
2016-11-15T13:51:15.253Z,9.2
2016-11-15T13:52:30.475Z,9.13
2016-11-15T13:53:42.472Z,9.15
2016-11-15T13:54:59.590Z,9.1
2016-11-15T13:56:14.285Z,9.12
2016-11-15T13:57:28.894Z,9.13
2016-11-15T13:58:42.436Z,9.16
2016-11-15T13:59:58.416Z,9.06
2016-11-15T14:01:11.378Z,9.06
2016-11-15T14:02:26.483Z,9.05
2016-11-15T14:03:39.936Z,9.15
2016-11-15T14:04:54.551Z,9.13
2016-11-15T14:06:05.518Z,9.2
2016-11-15T14:07:20.341Z,9.09
2016-11-15T14:08:36.927Z,9.15
2016-11-15T14:09:54.031Z,9.1
2016-11-15T14:11:07.506Z,9.13
2016-11-15T14:12:21.585Z,9.05
2016-11-15T14:13:37.490Z,9.06
2016-11-15T14:14:51.546Z,9.16
2016-11-15T14:16:06.771Z,9.21
2016-11-15T14:17:21.699Z,9.16
2016-11-15T14:18:35.192Z,9.15
2016-11-15T14:19:50.295Z,9.13
2016-11-15T14:21:05.346Z,9.25
2016-11-15T14:22:22.237Z,9.18
2016-11-15T14:23:39.032Z,9.09
2016-11-15T14:24:52.543Z,9.21
2016-11-15T14:26:08.100Z,9.24
2016-11-15T14:27:19.725Z,9.12
2016-11-15T14:28:35.760Z,9.15
2016-11-15T14:29:47.897Z,9.16
2016-11-15T14:31:01.106Z,9.23
2016-11-15T14:32:14.319Z,9.12
2016-11-15T14:33:29.555Z,9.18
2016-11-15T14:34:45.318Z,9.24
2016-11-15T14:35:58.573Z,9.21
2016-11-15T14:37:11.792Z,9.2
2016-11-15T14:38:26.406Z,9.15
2016-11-15T14:39:40.010Z,9.25
2016-11-15T14:40:53.640Z,9.21
2016-11-15T14:42:09.359Z,9.25
2016-11-15T14:43:24.380Z,9.3
2016-11-15T14:44:37.935Z,9.28
2016-11-15T14:45:53.976Z,9.23
2016-11-15T14:47:07.331Z,9.28
2016-11-15T14:48:19.401Z,9.28
2016-11-15T14:49:32.949Z,9.27
2016-11-15T14:50:49.254Z,9.24
2016-11-15T14:52:05.181Z,9.24
2016-11-15T14:53:19.424Z,9.27
2016-11-15T14:54:34.526Z,9.27
2016-11-15T14:55:48.405Z,9.23
2016-11-15T14:57:04.115Z,9.25
2016-11-15T14:58:21.103Z,9.32
2016-11-15T14:59:36.213Z,9.24
2016-11-15T15:00:50.918Z,9.23
2016-11-15T15:02:08.096Z,9.28
2016-11-15T15:03:24.584Z,9.27
2016-11-15T15:04:40.068Z,9.27
2016-11-15T15:05:55.697Z,9.28
2016-11-15T15:07:12.076Z,9.24
2016-11-15T15:08:25.508Z,9.25
2016-11-15T15:09:38.990Z,9.27
2016-11-15T15:10:52.456Z,9.23
2016-11-15T15:12:07.307Z,9.31
2016-11-15T15:13:23.600Z,9.3
2016-11-15T15:14:40.076Z,9.35
2016-11-15T15:15:53.921Z,9.32
2016-11-15T15:17:08.839Z,9.3
2016-11-15T15:18:22.572Z,9.39
2016-11-15T15:19:37.399Z,9.28
2016-11-15T15:20:51.046Z,9.39
2016-11-15T15:22:06.317Z,9.28
2016-11-15T15:23:22.854Z,9.35
2016-11-15T15:24:37.119Z,9.25
2016-11-15T15:25:52.987Z,9.27
2016-11-15T15:27:07.869Z,9.34
2016-11-15T15:28:22.884Z,9.27
2016-11-15T15:29:39.029Z,9.35
2016-11-15T15:30:53.949Z,9.32
2016-11-15T15:32:06.112Z,9.28
2016-11-15T15:33:22.280Z,9.27
2016-11-15T15:34:38.906Z,9.32
2016-11-15T15:35:54.213Z,9.34
2016-11-15T15:37:10.784Z,9.45
2016-11-15T15:38:27.827Z,9.38
2016-11-15T15:39:40.580Z,9.35
2016-11-15T15:40:55.265Z,9.38
2016-11-15T15:42:10.329Z,9.42
2016-11-15T15:43:24.888Z,9.43
2016-11-15T15:44:39.951Z,9.4
2016-11-15T15:45:56.236Z,9.4
2016-11-15T15:47:10.465Z,9.43
2016-11-15T15:48:25.463Z,9.4
2016-11-15T15:49:41.802Z,9.46
2016-11-15T15:50:57.052Z,9.34
2016-11-15T15:52:13.469Z,9.49
2016-11-15T15:53:27.051Z,9.46
2016-11-15T15:54:40.869Z,9.4
2016-11-15T15:55:56.098Z,9.39
2016-11-15T15:57:10.436Z,9.4
2016-11-15T15:58:25.163Z,9.39
2016-11-15T15:59:41.876Z,9.46
2016-11-15T16:00:58.455Z,9.43
2016-11-15T16:02:13.608Z,9.45
2016-11-15T16:03:29.893Z,9.38
2016-11-15T16:04:46.230Z,9.5
2016-11-15T16:06:02.748Z,9.46
2016-11-15T16:07:18.932Z,9.49
2016-11-15T16:08:32.329Z,9.39
2016-11-15T16:09:49.111Z,9.4
2016-11-15T16:11:05.476Z,9.52
2016-11-15T16:12:21.603Z,9.5
2016-11-15T16:13:35.144Z,9.5
2016-11-15T16:14:49.982Z,9.49
2016-11-15T16:16:03.602Z,9.46
2016-11-15T16:17:18.683Z,9.52
2016-11-15T16:18:33.371Z,9.49
2016-11-15T16:19:48.733Z,9.52
2016-11-15T16:21:05.170Z,9.53
2016-11-15T16:22:22.372Z,9.53
2016-11-15T16:23:36.166Z,9.57
2016-11-15T16:24:49.488Z,9.53
2016-11-15T16:26:01.283Z,9.57
2016-11-15T16:27:14.812Z,9.63
2016-11-15T16:28:29.848Z,9.56
2016-11-15T16:29:45.495Z,9.56
2016-11-15T16:31:01.994Z,9.58
2016-11-15T16:32:17.064Z,9.6
2016-11-15T16:33:31.960Z,9.67
2016-11-15T16:34:45.526Z,9.6
2016-11-15T16:36:00.603Z,9.68
2016-11-15T16:37:15.524Z,9.61
2016-11-15T16:38:30.248Z,9.7
2016-11-15T16:39:44.493Z,9.57